Time;durP1;ratioP1;P1;durP2;ratioP2;P2;SDS_P1;SDS_P2;PMS_P1;PMS_P2;Temp;Humidity;BMP_temperature;BMP_pressure;BME280_temperature;BME280_humidity;BME280_pressure;Samples;Min_cycle;Max_cycle;Signal;HPM_P1;HPM_P2
2022/09/23 00:01:33;;;;;;;2.17;1.97;;;;;;;;;;4969500;28;20631;-52
2022/09/23 00:03:59;;;;;;;2.40;2.20;;;;;;;;;;4971133;28;20179;-53
2022/09/23 00:06:29;;;;;;;3.30;2.00;;;;;;;;;;4969177;28;20191;-53
2022/09/23 00:08:55;;;;;;;3.10;2.20;;;;;;;;;;4961508;28;20177;-52
2022/09/23 00:11:22;;;;;;;2.57;1.93;;;;;;;;;;4965772;28;20184;-52
2022/09/23 00:13:49;;;;;;;2.17;2.00;;;;;;;;;;4953078;28;20294;-53
2022/09/23 00:16:17;;;;;;;1.97;1.87;;;;;;;;;;4963833;28;20594;-53
2022/09/23 00:18:43;;;;;;;3.07;2.10;;;;;;;;;;4970526;28;20233;-53
2022/09/23 00:21:11;;;;;;;2.80;1.90;;;;;;;;;;4961330;28;20631;-53
2022/09/23 00:23:40;;;;;;;2.63;2.23;;;;;;;;;;4970070;28;20658;-53
2022/09/23 00:26:07;;;;;;;2.97;2.30;;;;;;;;;;4968178;28;20577;-53
2022/09/23 00:28:33;;;;;;;2.50;2.30;;;;;;;;;;4970797;28;20173;-53
2022/09/23 00:31:07;;;;;;;2.30;2.10;;;;;;;;;;4957120;28;20582;-53
2022/09/23 00:33:33;;;;;;;2.70;2.17;;;;;;;;;;4962528;28;20223;-53
2022/09/23 00:36:04;;;;;;;1.77;1.67;;;;;;;;;;4967690;28;20693;-53
2022/09/23 00:38:30;;;;;;;2.30;2.10;;;;;;;;;;4970313;28;20230;-53
2022/09/23 00:40:57;;;;;;;2.10;1.90;;;;;;;;;;4963125;28;20665;-53
2022/09/23 00:43:40;;;;;;;3.53;2.00;;;;;;;;;;4967673;28;20194;-53
2022/09/23 00:46:07;;;;;;;2.20;2.00;;;;;;;;;;4967000;28;20186;-53
2022/09/23 00:48:34;;;;;;;2.33;1.90;;;;;;;;;;4970255;28;20282;-53
2022/09/23 00:51:00;;;;;;;2.40;2.03;;;;;;;;;;4963359;28;20218;-53
2022/09/23 00:53:27;;;;;;;2.30;2.00;;;;;;;;;;4960171;28;20227;-53
2022/09/23 00:55:56;;;;;;;2.27;2.07;;;;;;;;;;4968278;28;20179;-53
2022/09/23 00:58:25;;;;;;;2.80;1.97;;;;;;;;;;4970055;28;20164;-53
2022/09/23 01:00:52;;;;;;;2.70;2.30;;;;;;;;;;4950099;28;20195;-53
2022/09/23 01:03:18;;;;;;;1.80;1.70;;;;;;;;;;4969176;28;20243;-53
2022/09/23 01:05:45;;;;;;;2.10;1.90;;;;;;;;;;4967399;28;20325;-53
2022/09/23 01:08:42;;;;;;;2.20;2.00;;;;;;;;;;4964519;28;20714;-53
2022/09/23 01:11:34;;;;;;;2.13;1.73;;;;;;;;;;4960500;28;20211;-58
2022/09/23 01:14:11;;;;;;;3.40;2.00;;;;;;;;;;4950663;29;20662;-53
2022/09/23 01:16:44;;;;;;;1.93;1.70;;;;;;;;;;4965792;28;20191;-53
2022/09/23 01:19:16;;;;;;;2.00;1.90;;;;;;;;;;4969991;28;20689;-53
2022/09/23 01:21:42;;;;;;;2.27;1.90;;;;;;;;;;4968398;28;20367;-53
2022/09/23 01:24:08;;;;;;;1.90;1.80;;;;;;;;;;4969689;28;20168;-53
2022/09/23 01:26:51;;;;;;;3.93;2.00;;;;;;;;;;4960213;28;20527;-53
2022/09/23 01:29:29;;;;;;;2.30;2.10;;;;;;;;;;4968658;28;20550;-53
2022/09/23 01:32:01;;;;;;;2.40;2.20;;;;;;;;;;4963335;28;20191;-53
2022/09/23 01:34:37;;;;;;;3.20;2.60;;;;;;;;;;4968798;28;20460;-53
2022/09/23 01:37:23;;;;;;;2.67;2.10;;;;;;;;;;4966725;28;20200;-53
2022/09/23 01:40:03;;;;;;;2.23;2.03;;;;;;;;;;4968493;28;20215;-53
2022/09/23 01:42:33;;;;;;;3.20;2.17;;;;;;;;;;4967845;28;20198;-53
2022/09/23 01:45:07;;;;;;;2.07;1.73;;;;;;;;;;4954452;28;20199;-53
2022/09/23 01:47:39;;;;;;;1.90;1.80;;;;;;;;;;4965415;28;20550;-53
2022/09/23 01:52:57;;;;;;;2.50;2.30;;;;;;;;;;4956289;28;20214;-53
2022/09/23 01:55:28;;;;;;;2.57;2.10;;;;;;;;;;4956750;28;20549;-53
2022/09/23 01:57:58;;;;;;;3.63;1.80;;;;;;;;;;4967649;28;20222;-53
2022/09/23 02:00:24;;;;;;;2.00;1.90;;;;;;;;;;4962339;28;20617;-53
2022/09/23 02:02:53;;;;;;;2.10;1.90;;;;;;;;;;4966707;28;20576;-52
2022/09/23 02:05:25;;;;;;;2.07;1.93;;;;;;;;;;4967589;28;20608;-52
2022/09/23 02:07:56;;;;;;;2.93;1.93;;;;;;;;;;4966815;28;20262;-52
2022/09/23 02:10:25;;;;;;;2.63;2.43;;;;;;;;;;4963408;28;20180;-52
2022/09/23 02:12:53;;;;;;;2.50;2.30;;;;;;;;;;4966530;28;20603;-52
2022/09/23 02:15:22;;;;;;;2.60;1.90;;;;;;;;;;4968465;28;20220;-52
2022/09/23 02:17:48;;;;;;;1.90;1.80;;;;;;;;;;4967408;28;20646;-53
2022/09/23 02:20:19;;;;;;;2.70;1.87;;;;;;;;;;4963058;28;20639;-53
2022/09/23 02:22:48;;;;;;;2.13;1.93;;;;;;;;;;4966658;28;20183;-52
2022/09/23 02:25:16;;;;;;;2.17;1.97;;;;;;;;;;4968594;28;20778;-52
2022/09/23 02:28:01;;;;;;;2.17;1.97;;;;;;;;;;4968144;28;20191;-52
2022/09/23 02:30:29;;;;;;;2.80;2.10;;;;;;;;;;4963620;28;20355;-52
2022/09/23 02:33:06;;;;;;;2.00;1.90;;;;;;;;;;4966814;28;20258;-53
2022/09/23 02:35:44;;;;;;;2.47;2.10;;;;;;;;;;4966683;28;20215;-52
2022/09/23 02:38:29;;;;;;;2.50;1.80;;;;;;;;;;4947684;28;20588;-52
2022/09/23 02:41:11;;;;;;;2.30;1.73;;;;;;;;;;4959261;28;20541;-52
2022/09/23 02:43:53;;;;;;;2.50;1.73;;;;;;;;;;4968131;28;20180;-52
2022/09/23 02:46:19;;;;;;;2.23;1.80;;;;;;;;;;4965449;28;20184;-52
2022/09/23 02:48:56;;;;;;;2.20;2.00;;;;;;;;;;4968498;28;20232;-52
2022/09/23 02:51:24;;;;;;;1.67;1.57;;;;;;;;;;4962226;28;20183;-53
2022/09/23 02:53:51;;;;;;;2.23;2.03;;;;;;;;;;4965879;28;20199;-52
2022/09/23 02:56:20;;;;;;;2.10;1.60;;;;;;;;;;4966160;28;20180;-52
2022/09/23 02:58:48;;;;;;;2.77;1.90;;;;;;;;;;4971293;28;20168;-52
2022/09/23 03:01:33;;;;;;;3.67;3.47;;;;;;;;;;4969199;28;20183;-53
2022/09/23 03:04:18;;;;;;;3.53;2.30;;;;;;;;;;4972551;28;20218;-52
2022/09/23 03:07:05;;;;;;;2.30;2.10;;;;;;;;;;4970033;28;20222;-53
2022/09/23 03:09:45;;;;;;;2.27;1.90;;;;;;;;;;4945433;28;20199;-52
2022/09/23 03:12:34;;;;;;;2.67;2.00;;;;;;;;;;4946689;28;20207;-53
2022/09/23 03:15:03;;;;;;;2.53;1.90;;;;;;;;;;4967963;28;20227;-52
2022/09/23 03:17:40;;;;;;;2.37;2.10;;;;;;;;;;4967781;28;20184;-52
2022/09/23 03:20:15;;;;;;;2.33;1.83;;;;;;;;;;4952406;28;20624;-53
2022/09/23 03:22:53;;;;;;;4.37;2.33;;;;;;;;;;4969673;28;20551;-52
2022/09/23 03:25:20;;;;;;;2.23;2.07;;;;;;;;;;4971126;28;20199;-53
2022/09/23 03:27:46;;;;;;;1.80;1.70;;;;;;;;;;4969785;28;20748;-53
2022/09/23 03:30:14;;;;;;;1.97;1.87;;;;;;;;;;4939370;28;20666;-53
2022/09/23 03:32:44;;;;;;;2.43;2.00;;;;;;;;;;4969862;28;20632;-53
2022/09/23 03:35:11;;;;;;;2.17;1.87;;;;;;;;;;4970538;28;20267;-53
2022/09/23 03:37:49;;;;;;;2.30;1.80;;;;;;;;;;4970727;28;20208;-53
2022/09/23 03:40:22;;;;;;;3.90;3.60;;;;;;;;;;4965235;28;20243;-53
2022/09/23 03:42:48;;;;;;;2.47;2.10;;;;;;;;;;4958870;28;20259;-54
2022/09/23 03:45:17;;;;;;;2.10;1.90;;;;;;;;;;4969048;28;20191;-53
2022/09/23 03:47:43;;;;;;;1.80;1.70;;;;;;;;;;4967519;28;20702;-53
2022/09/23 03:50:12;;;;;;;2.03;1.80;;;;;;;;;;4969147;28;20773;-53
2022/09/23 03:52:38;;;;;;;1.97;1.73;;;;;;;;;;4970653;28;20199;-53
2022/09/23 03:55:05;;;;;;;1.97;1.70;;;;;;;;;;4969640;28;20226;-53
2022/09/23 03:57:31;;;;;;;1.90;1.80;;;;;;;;;;4965692;28;20303;-53
2022/09/23 03:59:57;;;;;;;2.27;2.07;;;;;;;;;;4968499;28;20176;-53
2022/09/23 04:02:23;;;;;;;2.60;2.40;;;;;;;;;;4968767;28;20580;-53
2022/09/23 04:04:50;;;;;;;1.70;1.60;;;;;;;;;;4971041;28;20706;-53
2022/09/23 04:07:16;;;;;;;3.13;2.93;;;;;;;;;;4967348;28;20635;-53
2022/09/23 04:09:43;;;;;;;2.10;1.80;;;;;;;;;;4968975;28;20176;-53
2022/09/23 04:12:12;;;;;;;1.73;1.63;;;;;;;;;;4968266;28;20228;-53
2022/09/23 04:14:38;;;;;;;2.13;1.90;;;;;;;;;;4970046;28;20470;-53
2022/09/23 04:17:04;;;;;;;1.87;1.77;;;;;;;;;;4968656;28;20191;-53
2022/09/23 04:19:30;;;;;;;1.73;1.60;;;;;;;;;;4969238;28;20228;-53
2022/09/23 04:21:57;;;;;;;2.43;2.23;;;;;;;;;;4968861;28;20246;-53
2022/09/23 04:24:23;;;;;;;2.00;1.80;;;;;;;;;;4971087;28;20207;-53
2022/09/23 04:26:53;;;;;;;2.40;2.20;;;;;;;;;;4969250;28;20194;-53
2022/09/23 04:29:20;;;;;;;2.73;2.50;;;;;;;;;;4970460;28;20184;-53
2022/09/23 04:31:46;;;;;;;2.23;2.03;;;;;;;;;;4965273;28;20593;-53
2022/09/23 04:34:12;;;;;;;2.10;1.90;;;;;;;;;;4954777;28;20696;-53
2022/09/23 04:36:38;;;;;;;1.90;1.80;;;;;;;;;;4968202;28;20265;-53
2022/09/23 04:39:04;;;;;;;1.70;1.60;;;;;;;;;;4967689;28;20587;-53
2022/09/23 04:41:30;;;;;;;2.10;1.90;;;;;;;;;;4958292;28;20165;-53
2022/09/23 04:43:57;;;;;;;2.23;1.97;;;;;;;;;;4964412;28;20191;-53
2022/09/23 04:46:23;;;;;;;2.90;2.67;;;;;;;;;;4967430;28;20184;-53
2022/09/23 04:48:49;;;;;;;1.90;1.80;;;;;;;;;;4966073;28;20293;-53
2022/09/23 04:51:17;;;;;;;1.57;1.47;;;;;;;;;;4964045;28;20748;-53
2022/09/23 04:53:45;;;;;;;1.60;1.50;;;;;;;;;;4968621;28;20728;-53
2022/09/23 04:56:12;;;;;;;2.23;1.83;;;;;;;;;;4957712;28;20702;-53
2022/09/23 04:58:39;;;;;;;2.30;2.10;;;;;;;;;;4957791;28;20191;-53
2022/09/23 05:01:10;;;;;;;2.50;2.00;;;;;;;;;;4957444;28;20208;-53
2022/09/23 05:03:36;;;;;;;2.23;2.00;;;;;;;;;;4968648;28;20263;-53
2022/09/23 05:06:02;;;;;;;2.10;1.80;;;;;;;;;;4969443;28;20172;-53
2022/09/23 05:08:28;;;;;;;3.83;2.07;;;;;;;;;;4966119;28;20195;-53
2022/09/23 05:10:57;;;;;;;1.90;1.80;;;;;;;;;;4968300;28;20195;-53
2022/09/23 05:13:24;;;;;;;2.20;1.90;;;;;;;;;;4964568;28;20648;-53
2022/09/23 05:15:50;;;;;;;2.70;1.80;;;;;;;;;;4964158;28;20322;-53
2022/09/23 05:18:16;;;;;;;1.97;1.83;;;;;;;;;;4967439;28;20199;-53
2022/09/23 05:20:42;;;;;;;2.80;2.10;;;;;;;;;;4958110;28;20180;-53
2022/09/23 05:23:08;;;;;;;2.10;1.90;;;;;;;;;;4967649;28;20199;-53
2022/09/23 05:25:34;;;;;;;2.70;1.90;;;;;;;;;;4966131;28;20234;-52
2022/09/23 05:28:00;;;;;;;4.27;2.00;;;;;;;;;;4966859;28;20524;-53
2022/09/23 05:30:26;;;;;;;5.07;1.80;;;;;;;;;;4962230;28;20243;-53
2022/09/23 05:32:52;;;;;;;2.57;2.40;;;;;;;;;;4963343;28;20218;-53
2022/09/23 05:35:19;;;;;;;2.27;1.93;;;;;;;;;;4966683;28;20188;-53
2022/09/23 05:37:45;;;;;;;2.00;1.90;;;;;;;;;;4963966;28;20219;-53
2022/09/23 05:40:11;;;;;;;2.90;2.10;;;;;;;;;;4960609;28;20180;-53
2022/09/23 05:42:37;;;;;;;2.87;2.67;;;;;;;;;;4963465;28;20196;-53
2022/09/23 05:45:03;;;;;;;3.43;1.73;;;;;;;;;;4965445;28;20176;-53
2022/09/23 05:47:29;;;;;;;2.33;1.97;;;;;;;;;;4948705;29;20184;-53
2022/09/23 05:49:55;;;;;;;2.50;2.07;;;;;;;;;;4959009;28;20387;-53
2022/09/23 05:52:22;;;;;;;2.03;1.60;;;;;;;;;;4968811;28;20718;-52
2022/09/23 05:54:48;;;;;;;2.00;1.70;;;;;;;;;;4967679;28;20556;-53
2022/09/23 05:57:14;;;;;;;2.70;1.90;;;;;;;;;;4969423;28;20160;-52
2022/09/23 05:59:46;;;;;;;2.00;1.80;;;;;;;;;;4968257;28;20541;-52
2022/09/23 06:02:12;;;;;;;4.00;2.20;;;;;;;;;;4963783;28;20187;-56
2022/09/23 06:04:38;;;;;;;4.00;2.93;;;;;;;;;;4964509;28;20179;-54
2022/09/23 06:07:04;;;;;;;5.27;2.60;;;;;;;;;;4966481;28;20200;-54
2022/09/23 06:09:30;;;;;;;3.63;2.60;;;;;;;;;;4969578;28;20176;-54
2022/09/23 06:11:57;;;;;;;3.07;2.77;;;;;;;;;;4968499;28;20208;-54
2022/09/23 06:14:23;;;;;;;4.40;3.00;;;;;;;;;;4968844;28;20196;-54
2022/09/23 06:16:49;;;;;;;2.40;2.00;;;;;;;;;;4967047;28;20188;-53
2022/09/23 06:19:15;;;;;;;2.20;2.00;;;;;;;;;;4968879;28;20492;-53
2022/09/23 06:21:41;;;;;;;3.03;2.73;;;;;;;;;;4949517;28;20710;-53
2022/09/23 06:24:08;;;;;;;4.13;2.23;;;;;;;;;;4967640;28;20168;-53
2022/09/23 06:26:36;;;;;;;2.50;2.30;;;;;;;;;;4968934;28;20513;-54
2022/09/23 06:29:03;;;;;;;2.78;2.40;;;;;;;;;;4968219;28;20414;-54
2022/09/23 06:31:29;;;;;;;4.70;2.53;;;;;;;;;;4965827;28;20188;-54
2022/09/23 06:33:55;;;;;;;4.47;3.70;;;;;;;;;;4967393;28;20262;-54
2022/09/23 06:36:22;;;;;;;9.50;2.93;;;;;;;;;;4969742;28;20164;-54
2022/09/23 06:38:48;;;;;;;4.47;2.10;;;;;;;;;;4953383;28;20204;-54
2022/09/23 06:41:14;;;;;;;3.50;2.80;;;;;;;;;;4963182;28;20188;-54
2022/09/23 06:43:41;;;;;;;3.53;2.30;;;;;;;;;;4970207;28;20300;-54
2022/09/23 06:46:08;;;;;;;2.57;2.37;;;;;;;;;;4950041;28;20173;-54
2022/09/23 06:48:35;;;;;;;4.40;2.20;;;;;;;;;;4937622;28;20179;-54
2022/09/23 06:51:02;;;;;;;3.57;2.63;;;;;;;;;;4953192;28;20224;-54
2022/09/23 06:53:31;;;;;;;2.60;2.40;;;;;;;;;;4934763;29;20303;-54
2022/09/23 06:55:59;;;;;;;3.83;2.00;;;;;;;;;;4959003;28;20400;-54
2022/09/23 06:58:25;;;;;;;4.33;2.60;;;;;;;;;;4965741;28;20545;-54
2022/09/23 07:00:52;;;;;;;13.80;2.97;;;;;;;;;;4966825;28;20182;-54
2022/09/23 07:03:19;;;;;;;3.30;2.73;;;;;;;;;;4968312;28;20195;-54
2022/09/23 07:05:46;;;;;;;9.37;3.60;;;;;;;;;;4963795;28;20179;-54
2022/09/23 07:08:12;;;;;;;6.90;2.37;;;;;;;;;;4963259;28;20630;-53
2022/09/23 07:10:39;;;;;;;2.70;2.47;;;;;;;;;;4970489;28;20200;-53
2022/09/23 07:13:05;;;;;;;3.23;2.00;;;;;;;;;;4961815;28;20200;-54
2022/09/23 07:15:32;;;;;;;2.60;2.40;;;;;;;;;;4951597;28;20188;-54
2022/09/23 07:17:58;;;;;;;14.07;3.87;;;;;;;;;;4959780;28;20180;-54
2022/09/23 07:20:24;;;;;;;11.63;3.00;;;;;;;;;;4958223;28;20271;-53
2022/09/23 07:22:51;;;;;;;2.50;2.30;;;;;;;;;;4948648;28;20485;-54
2022/09/23 07:25:17;;;;;;;3.30;2.37;;;;;;;;;;4971111;28;20709;-54
2022/09/23 07:27:46;;;;;;;3.93;2.40;;;;;;;;;;4968088;28;20191;-54
2022/09/23 07:30:13;;;;;;;2.40;2.20;;;;;;;;;;4969457;28;20388;-53
2022/09/23 07:32:40;;;;;;;2.40;2.20;;;;;;;;;;4937949;29;20214;-53
2022/09/23 07:35:07;;;;;;;2.43;2.00;;;;;;;;;;4970227;28;20649;-53
2022/09/23 07:37:33;;;;;;;2.70;2.13;;;;;;;;;;4970115;28;20192;-53
2022/09/23 07:39:59;;;;;;;2.33;1.93;;;;;;;;;;4970056;28;20659;-54
2022/09/23 07:42:25;;;;;;;2.93;1.93;;;;;;;;;;4953805;28;20307;-54
2022/09/23 07:44:52;;;;;;;2.90;2.60;;;;;;;;;;4953600;28;20433;-54
2022/09/23 07:47:19;;;;;;;2.37;1.83;;;;;;;;;;4968736;28;20181;-54
2022/09/23 07:49:45;;;;;;;3.07;2.40;;;;;;;;;;4970464;28;20310;-53
2022/09/23 07:52:12;;;;;;;2.80;2.30;;;;;;;;;;4952032;29;20161;-54
2022/09/23 07:54:38;;;;;;;4.00;2.33;;;;;;;;;;4962939;28;20271;-53
2022/09/23 07:57:04;;;;;;;2.83;2.23;;;;;;;;;;4969825;28;20780;-54
2022/09/23 07:59:30;;;;;;;3.50;2.40;;;;;;;;;;4953001;28;20307;-54
2022/09/23 08:01:56;;;;;;;2.70;2.50;;;;;;;;;;4969086;28;20191;-53
2022/09/23 08:04:28;;;;;;;3.07;2.70;;;;;;;;;;4951407;28;20195;-55
2022/09/23 08:06:56;;;;;;;2.47;2.07;;;;;;;;;;4970218;28;20649;-54
2022/09/23 08:09:25;;;;;;;2.50;2.30;;;;;;;;;;4964705;28;20180;-53
2022/09/23 08:11:51;;;;;;;3.13;2.03;;;;;;;;;;4968625;28;20666;-54
2022/09/23 08:14:17;;;;;;;3.40;2.27;;;;;;;;;;4952128;28;20676;-53
2022/09/23 08:16:46;;;;;;;2.63;2.30;;;;;;;;;;4952374;28;20687;-54
2022/09/23 08:19:19;;;;;;;3.00;2.70;;;;;;;;;;4962904;28;20266;-56
2022/09/23 08:21:46;;;;;;;2.80;2.40;;;;;;;;;;4972582;28;20254;-53
2022/09/23 08:24:13;;;;;;;2.23;2.10;;;;;;;;;;4954133;28;20205;-53
2022/09/23 08:26:40;;;;;;;5.27;2.50;;;;;;;;;;4965774;28;20296;-54
2022/09/23 08:29:08;;;;;;;3.17;2.50;;;;;;;;;;4970850;28;20168;-53
2022/09/23 08:31:35;;;;;;;3.03;2.47;;;;;;;;;;4951769;28;20930;-54
2022/09/23 08:34:01;;;;;;;5.37;1.90;;;;;;;;;;4970196;28;20722;-53
2022/09/23 08:36:27;;;;;;;2.80;2.43;;;;;;;;;;4968310;28;20199;-53
2022/09/23 08:38:54;;;;;;;3.43;3.13;;;;;;;;;;4970147;28;20203;-53
2022/09/23 08:41:26;;;;;;;2.47;2.27;;;;;;;;;;4970207;28;20188;-54
2022/09/23 08:43:56;;;;;;;3.00;2.70;;;;;;;;;;4970395;28;20200;-53
2022/09/23 08:46:25;;;;;;;4.47;2.23;;;;;;;;;;4956153;28;20189;-53
2022/09/23 08:48:53;;;;;;;3.40;2.10;;;;;;;;;;4959710;28;20183;-55
2022/09/23 08:51:25;;;;;;;2.40;2.10;;;;;;;;;;4944287;29;20306;-54
2022/09/23 08:53:51;;;;;;;3.47;2.40;;;;;;;;;;4950781;29;20197;-54
2022/09/23 08:56:19;;;;;;;3.80;2.30;;;;;;;;;;4949262;28;20244;-54
2022/09/23 08:59:04;;;;;;;2.77;2.30;;;;;;;;;;4950975;29;20171;-54
2022/09/23 09:01:30;;;;;;;2.90;2.50;;;;;;;;;;4935509;29;20200;-54
2022/09/23 09:03:56;;;;;;;4.27;2.40;;;;;;;;;;4931382;29;20180;-54
2022/09/23 09:06:26;;;;;;;5.13;2.63;;;;;;;;;;4945006;28;20211;-53
2022/09/23 09:08:59;;;;;;;5.47;2.67;;;;;;;;;;4950847;29;20224;-53
2022/09/23 09:11:30;;;;;;;3.00;2.73;;;;;;;;;;4950686;29;20207;-53
2022/09/23 09:14:15;;;;;;;2.70;2.50;;;;;;;;;;4950692;29;20204;-54
2022/09/23 09:16:46;;;;;;;4.13;2.70;;;;;;;;;;4946582;29;20452;-54
2022/09/23 09:19:21;;;;;;;3.17;2.83;;;;;;;;;;4932999;29;20184;-53
2022/09/23 09:21:51;;;;;;;2.70;2.50;;;;;;;;;;4949113;29;20174;-52
2022/09/23 09:24:21;;;;;;;2.77;2.50;;;;;;;;;;4949663;28;20184;-53
2022/09/23 09:26:47;;;;;;;3.23;2.93;;;;;;;;;;4933718;29;20189;-52
2022/09/23 09:29:19;;;;;;;3.80;2.80;;;;;;;;;;4913784;29;20177;-56
2022/09/23 09:31:49;;;;;;;3.40;2.20;;;;;;;;;;4946914;29;20184;-53
2022/09/23 09:34:15;;;;;;;4.77;2.50;;;;;;;;;;4950290;29;20276;-53
2022/09/23 09:36:45;;;;;;;2.73;2.10;;;;;;;;;;4938720;29;20656;-53
2022/09/23 09:39:12;;;;;;;3.53;2.40;;;;;;;;;;4950215;29;20196;-53
2022/09/23 09:41:40;;;;;;;2.37;2.17;;;;;;;;;;4949159;28;20193;-53
2022/09/23 09:44:15;;;;;;;2.90;2.60;;;;;;;;;;4950044;29;20161;-53
2022/09/23 09:46:53;;;;;;;3.00;2.40;;;;;;;;;;4932625;29;20446;-52
2022/09/23 09:49:27;;;;;;;3.93;2.40;;;;;;;;;;4952205;28;20277;-53
2022/09/23 09:52:12;;;;;;;3.67;2.87;;;;;;;;;;4968697;28;20175;-53
2022/09/23 09:54:38;;;;;;;3.83;2.60;;;;;;;;;;4965575;28;20269;-53
2022/09/23 09:57:05;;;;;;;3.67;2.73;;;;;;;;;;4966690;28;20209;-51
2022/09/23 09:59:32;;;;;;;3.07;2.73;;;;;;;;;;4965568;28;20192;-52
2022/09/23 10:02:17;;;;;;;4.83;2.50;;;;;;;;;;4967020;28;20215;-54
2022/09/23 10:04:43;;;;;;;3.33;2.93;;;;;;;;;;4967296;28;20189;-53
2022/09/23 10:07:14;;;;;;;3.30;2.50;;;;;;;;;;4965187;28;20189;-51
2022/09/23 10:09:47;;;;;;;5.90;2.70;;;;;;;;;;4966803;28;20239;-51
2022/09/23 10:12:14;;;;;;;4.50;3.17;;;;;;;;;;4967409;28;20191;-53
2022/09/23 10:14:44;;;;;;;3.17;2.70;;;;;;;;;;4964977;28;20215;-53
2022/09/23 10:17:16;;;;;;;6.37;3.13;;;;;;;;;;4964747;28;20183;-52
2022/09/23 10:19:47;;;;;;;4.73;3.20;;;;;;;;;;4966046;28;20180;-52
2022/09/23 10:22:19;;;;;;;3.70;3.40;;;;;;;;;;4953711;28;20246;-53
2022/09/23 10:24:49;;;;;;;5.17;2.97;;;;;;;;;;4946148;28;20212;-52
2022/09/23 10:27:16;;;;;;;5.10;2.90;;;;;;;;;;4958129;28;20232;-51
2022/09/23 10:29:49;;;;;;;4.13;2.70;;;;;;;;;;4960238;28;20186;-52
2022/09/23 10:32:19;;;;;;;4.43;3.10;;;;;;;;;;4949301;28;20711;-52
2022/09/23 10:34:46;;;;;;;4.63;3.43;;;;;;;;;;4951898;28;20183;-50
2022/09/23 10:37:36;;;;;;;5.00;3.37;;;;;;;;;;4957455;28;20203;-52
2022/09/23 10:46:37;;;;;;;5.63;3.33;;;;;;;;;;4940391;28;20195;-52
2022/09/23 10:49:16;;;;;;;7.07;3.05;;;;;;;;;;4957850;28;20450;-53
2022/09/23 10:52:00;;;;;;;4.47;3.40;;;;;;;;;;4940390;28;20184;-53
2022/09/23 10:54:42;;;;;;;5.30;3.47;;;;;;;;;;4941944;28;20572;-53
2022/09/23 10:57:41;;;;;;;5.07;3.00;;;;;;;;;;4956107;28;20705;-52
2022/09/23 11:00:13;;;;;;;3.83;2.93;;;;;;;;;;4929577;28;20189;-53
2022/09/23 11:02:51;;;;;;;4.53;3.00;;;;;;;;;;4942103;28;20187;-53
2022/09/23 11:05:33;;;;;;;5.37;3.10;;;;;;;;;;4943467;28;20192;-53
2022/09/23 11:08:00;;;;;;;9.53;3.10;;;;;;;;;;4956262;28;20180;-53
2022/09/23 11:10:29;;;;;;;3.70;2.53;;;;;;;;;;4960640;28;20180;-53
2022/09/23 11:12:55;;;;;;;2.97;2.70;;;;;;;;;;4936542;28;20207;-53
2022/09/23 11:15:21;;;;;;;4.37;2.73;;;;;;;;;;4940289;28;20177;-53
2022/09/23 11:17:51;;;;;;;4.03;3.30;;;;;;;;;;4960639;28;20656;-53
2022/09/23 11:20:22;;;;;;;3.33;2.90;;;;;;;;;;4969788;28;20183;-54
2022/09/23 11:22:49;;;;;;;6.47;3.30;;;;;;;;;;4961009;28;20283;-52
2022/09/23 11:25:25;;;;;;;5.57;3.30;;;;;;;;;;4945572;28;20180;-53
2022/09/23 11:28:10;;;;;;;3.43;2.90;;;;;;;;;;4959033;28;20171;-53
2022/09/23 11:30:43;;;;;;;3.03;2.73;;;;;;;;;;4963828;28;20650;-52
2022/09/23 11:33:16;;;;;;;3.67;3.30;;;;;;;;;;4961825;28;20831;-52
2022/09/23 11:35:49;;;;;;;4.00;2.97;;;;;;;;;;4943885;28;20184;-53
2022/09/23 11:38:25;;;;;;;5.27;2.83;;;;;;;;;;4965808;28;20213;-53
2022/09/23 11:41:17;;;;;;;3.73;2.70;;;;;;;;;;4962224;28;21321;-52
2022/09/23 11:43:50;;;;;;;3.87;3.17;;;;;;;;;;4927181;28;20199;-53
2022/09/23 11:46:19;;;;;;;5.23;2.97;;;;;;;;;;4943230;28;20184;-53
2022/09/23 11:48:45;;;;;;;4.27;3.00;;;;;;;;;;4963834;28;20219;-53
2022/09/23 11:51:16;;;;;;;5.83;3.23;;;;;;;;;;4950517;28;20238;-53
2022/09/23 11:53:42;;;;;;;7.80;3.50;;;;;;;;;;4951101;28;20227;-52
2022/09/23 11:56:22;;;;;;;4.33;2.63;;;;;;;;;;4952263;28;20184;-52
2022/09/23 11:59:02;;;;;;;3.70;3.00;;;;;;;;;;4953084;28;20202;-53
2022/09/23 12:01:34;;;;;;;4.73;2.80;;;;;;;;;;4968998;28;20183;-52
2022/09/23 12:04:09;;;;;;;3.03;2.73;;;;;;;;;;4951482;28;20198;-53
2022/09/23 12:06:45;;;;;;;5.57;2.80;;;;;;;;;;4941870;28;20654;-53
2022/09/23 12:09:24;;;;;;;5.93;3.33;;;;;;;;;;4957148;28;20269;-53
2022/09/23 12:11:56;;;;;;;5.17;3.00;;;;;;;;;;4963988;28;20188;-53
2022/09/23 12:14:25;;;;;;;4.70;2.83;;;;;;;;;;4967012;28;20705;-53
2022/09/23 12:17:19;;;;;;;5.03;2.30;;;;;;;;;;4941640;28;20191;-53
2022/09/23 12:19:46;;;;;;;4.00;2.73;;;;;;;;;;4969746;28;20573;-54
2022/09/23 12:22:28;;;;;;;3.97;3.37;;;;;;;;;;4970328;28;20168;-53
2022/09/23 12:24:57;;;;;;;3.63;2.53;;;;;;;;;;4957574;28;20169;-54
2022/09/23 12:27:23;;;;;;;3.53;2.47;;;;;;;;;;4964098;28;20174;-54
2022/09/23 12:29:57;;;;;;;4.67;2.50;;;;;;;;;;4969891;28;20664;-54
2022/09/23 12:32:24;;;;;;;3.53;2.50;;;;;;;;;;4948822;28;20179;-54
2022/09/23 12:34:51;;;;;;;4.40;2.60;;;;;;;;;;4971102;28;20611;-54
2022/09/23 12:37:23;;;;;;;7.87;3.90;;;;;;;;;;4950847;28;20208;-54
2022/09/23 12:39:49;;;;;;;3.00;2.70;;;;;;;;;;4952070;28;20219;-54
2022/09/23 12:42:20;;;;;;;4.03;2.57;;;;;;;;;;4974263;28;20555;-53
2022/09/23 12:44:47;;;;;;;6.03;2.67;;;;;;;;;;4968862;28;20182;-54
2022/09/23 12:47:27;;;;;;;2.93;2.50;;;;;;;;;;4967983;28;20561;-53
2022/09/23 12:49:55;;;;;;;4.60;2.40;;;;;;;;;;4969482;28;20238;-54
2022/09/23 12:52:25;;;;;;;5.17;3.03;;;;;;;;;;4962911;28;20184;-53
2022/09/23 12:54:55;;;;;;;4.20;2.47;;;;;;;;;;4970427;28;20185;-53
2022/09/23 12:57:33;;;;;;;2.70;2.50;;;;;;;;;;4947984;28;20179;-53
2022/09/23 13:00:10;;;;;;;4.40;2.83;;;;;;;;;;4969655;28;20176;-53
2022/09/23 13:02:39;;;;;;;3.70;2.57;;;;;;;;;;4967571;28;20176;-53
2022/09/23 13:08:22;;;;;;;3.00;2.70;;;;;;;;;;4965716;28;20562;-53
2022/09/23 13:10:57;;;;;;;4.60;2.57;;;;;;;;;;4941190;28;20710;-53
2022/09/23 13:13:30;;;;;;;7.37;2.67;;;;;;;;;;4968073;28;20203;-54
2022/09/23 13:16:09;;;;;;;4.63;2.30;;;;;;;;;;4951604;28;20202;-51
2022/09/23 13:18:51;;;;;;;2.97;2.60;;;;;;;;;;4951314;28;20222;-51
2022/09/23 13:21:19;;;;;;;3.20;2.90;;;;;;;;;;4958728;28;20168;-53
2022/09/23 13:24:30;;;;;;;4.33;3.10;;;;;;;;;;4969342;28;20171;-53
2022/09/23 13:27:01;;;;;;;5.90;2.40;;;;;;;;;;4908590;29;20716;-52
2022/09/23 13:29:40;;;;;;;2.87;2.57;;;;;;;;;;4922435;29;20189;-53
2022/09/23 13:32:10;;;;;;;3.30;2.50;;;;;;;;;;4940803;28;20192;-53
2022/09/23 13:34:37;;;;;;;9.53;3.13;;;;;;;;;;4934083;29;20676;-53
2022/09/23 13:37:20;;;;;;;4.10;2.70;;;;;;;;;;4955321;28;20210;-53
2022/09/23 13:40:06;;;;;;;3.67;3.30;;;;;;;;;;4954050;28;20212;-53
2022/09/23 13:42:38;;;;;;;4.40;2.80;;;;;;;;;;4954427;28;20230;-53
2022/09/23 13:45:05;;;;;;;4.57;2.60;;;;;;;;;;4950324;29;20530;-52
2022/09/23 13:47:32;;;;;;;6.43;3.27;;;;;;;;;;4961908;28;20711;-53
2022/09/23 13:49:58;;;;;;;6.70;2.43;;;;;;;;;;4970103;28;20227;-53
2022/09/23 13:52:28;;;;;;;7.23;2.80;;;;;;;;;;4964375;28;20681;-53
2022/09/23 13:54:55;;;;;;;3.53;2.80;;;;;;;;;;4968824;28;20608;-53
2022/09/23 13:57:32;;;;;;;4.30;2.60;;;;;;;;;;4966689;28;20561;-53
2022/09/23 14:00:19;;;;;;;5.77;3.57;;;;;;;;;;4947897;29;20188;-53
2022/09/23 14:02:46;;;;;;;2.77;2.57;;;;;;;;;;4964672;28;20176;-53
2022/09/23 14:05:26;;;;;;;3.73;2.73;;;;;;;;;;4968056;28;20171;-54
2022/09/23 14:07:53;;;;;;;2.90;2.20;;;;;;;;;;4952696;28;20694;-54
2022/09/23 14:10:21;;;;;;;3.37;2.43;;;;;;;;;;4958393;28;20191;-53
2022/09/23 14:12:48;;;;;;;5.17;2.77;;;;;;;;;;4971848;28;20219;-53
2022/09/23 14:15:16;;;;;;;4.20;2.57;;;;;;;;;;4967527;28;20184;-53
2022/09/23 14:17:46;;;;;;;7.30;2.57;;;;;;;;;;4959505;28;20190;-53
2022/09/23 14:20:13;;;;;;;4.63;3.50;;;;;;;;;;4950095;28;20187;-54
2022/09/23 14:22:40;;;;;;;6.43;2.57;;;;;;;;;;4938137;28;20180;-54
2022/09/23 14:25:12;;;;;;;3.13;2.40;;;;;;;;;;4967635;28;20164;-53
2022/09/23 14:27:40;;;;;;;5.05;2.78;;;;;;;;;;4956347;28;20437;-54
2022/09/23 14:30:06;;;;;;;4.63;3.20;;;;;;;;;;4958415;28;20629;-54
2022/09/23 14:32:32;;;;;;;2.67;2.47;;;;;;;;;;4960708;28;20881;-54
2022/09/23 14:35:02;;;;;;;5.63;2.67;;;;;;;;;;4967099;28;20267;-53
2022/09/23 14:40:25;;;;;;;4.13;2.30;;;;;;;;;;4963590;28;20182;-53
2022/09/23 14:42:57;;;;;;;4.50;2.10;;;;;;;;;;4958552;28;20642;-54
2022/09/23 14:45:27;;;;;;;2.67;2.13;;;;;;;;;;4943086;28;20223;-54
2022/09/23 14:47:58;;;;;;;2.77;2.57;;;;;;;;;;4950951;28;20335;-54
2022/09/23 14:50:47;;;;;;;3.47;2.17;;;;;;;;;;4944363;28;20224;-54
2022/09/23 14:53:21;;;;;;;3.27;2.07;;;;;;;;;;4959097;28;20281;-54
2022/09/23 14:55:48;;;;;;;3.97;2.10;;;;;;;;;;4970194;28;20172;-54
2022/09/23 14:58:18;;;;;;;2.47;2.27;;;;;;;;;;4969856;28;20172;-54
2022/09/23 15:00:52;;;;;;;2.73;2.23;;;;;;;;;;4970629;28;20159;-54
2022/09/23 15:03:22;;;;;;;4.17;2.50;;;;;;;;;;4948230;28;20222;-54
2022/09/23 15:05:49;;;;;;;2.90;2.60;;;;;;;;;;4969292;28;20179;-54
2022/09/23 15:08:20;;;;;;;3.07;2.03;;;;;;;;;;4970544;28;20168;-54
2022/09/23 15:10:46;;;;;;;3.57;2.10;;;;;;;;;;4966978;28;20657;-55
2022/09/23 15:13:25;;;;;;;5.87;2.20;;;;;;;;;;4970145;28;20213;-54
2022/09/23 15:15:52;;;;;;;3.30;2.03;;;;;;;;;;4969375;28;20180;-54
2022/09/23 15:18:25;;;;;;;3.47;2.00;;;;;;;;;;4949828;29;20169;-54